sensor_id;sensor_type;location;lat;lon;timestamp;P1;durP1;ratioP1;P2;durP2;ratioP2
43857;SDS011;29507;51.284;5.758;2023-06-19T00:01:59;5.60;;;3.20;;
43857;SDS011;29507;51.284;5.758;2023-06-19T00:04:25;5.72;;;3.65;;
43857;SDS011;29507;51.284;5.758;2023-06-19T00:06:51;5.72;;;3.33;;
43857;SDS011;29507;51.284;5.758;2023-06-19T00:09:18;5.95;;;3.40;;
43857;SDS011;29507;51.284;5.758;2023-06-19T00:11:44;6.55;;;3.80;;
43857;SDS011;29507;51.284;5.758;2023-06-19T00:14:09;6.30;;;3.78;;
43857;SDS011;29507;51.284;5.758;2023-06-19T00:16:35;6.15;;;3.47;;
43857;SDS011;29507;51.284;5.758;2023-06-19T00:19:01;5.22;;;3.63;;
43857;SDS011;29507;51.284;5.758;2023-06-19T00:21:28;4.93;;;3.17;;
43857;SDS011;29507;51.284;5.758;2023-06-19T00:23:55;5.97;;;3.88;;
43857;SDS011;29507;51.284;5.758;2023-06-19T00:26:21;6.25;;;3.60;;
43857;SDS011;29507;51.284;5.758;2023-06-19T00:28:50;6.25;;;4.00;;
43857;SDS011;29507;51.284;5.758;2023-06-19T00:31:17;5.88;;;3.40;;
43857;SDS011;29507;51.284;5.758;2023-06-19T00:33:44;8.77;;;3.42;;
43857;SDS011;29507;51.284;5.758;2023-06-19T00:36:13;6.90;;;3.55;;
43857;SDS011;29507;51.284;5.758;2023-06-19T00:38:40;5.63;;;3.63;;
43857;SDS011;29507;51.284;5.758;2023-06-19T00:41:07;11.30;;;3.70;;
43857;SDS011;29507;51.284;5.758;2023-06-19T00:43:33;7.10;;;3.78;;
43857;SDS011;29507;51.284;5.758;2023-06-19T00:45:59;7.03;;;3.60;;
43857;SDS011;29507;51.284;5.758;2023-06-19T00:48:26;6.05;;;3.65;;
43857;SDS011;29507;51.284;5.758;2023-06-19T00:50:53;5.32;;;3.33;;
43857;SDS011;29507;51.284;5.758;2023-06-19T00:53:21;5.28;;;3.30;;
43857;SDS011;29507;51.284;5.758;2023-06-19T00:55:48;6.18;;;3.80;;
43857;SDS011;29507;51.284;5.758;2023-06-19T00:58:16;8.10;;;3.23;;
43857;SDS011;29507;51.284;5.758;2023-06-19T01:00:42;6.85;;;3.60;;
43857;SDS011;29507;51.284;5.758;2023-06-19T01:03:08;5.53;;;3.17;;
43857;SDS011;29507;51.284;5.758;2023-06-19T01:05:34;5.30;;;3.28;;
43857;SDS011;29507;51.284;5.758;2023-06-19T01:08:04;6.80;;;3.50;;
43857;SDS011;29507;51.284;5.758;2023-06-19T01:10:38;4.70;;;2.60;;
43857;SDS011;29507;51.284;5.758;2023-06-19T01:13:13;6.47;;;3.28;;
43857;SDS011;29507;51.284;5.758;2023-06-19T01:15:47;5.60;;;3.67;;
43857;SDS011;29507;51.284;5.758;2023-06-19T01:18:13;7.18;;;2.90;;
43857;SDS011;29507;51.284;5.758;2023-06-19T01:20:40;4.65;;;2.90;;
43857;SDS011;29507;51.284;5.758;2023-06-19T01:23:10;4.95;;;3.00;;
43857;SDS011;29507;51.284;5.758;2023-06-19T01:25:36;6.05;;;3.47;;
43857;SDS011;29507;51.284;5.758;2023-06-19T01:28:03;6.93;;;3.10;;
43857;SDS011;29507;51.284;5.758;2023-06-19T01:30:31;5.32;;;3.63;;
43857;SDS011;29507;51.284;5.758;2023-06-19T01:33:15;4.85;;;2.83;;
43857;SDS011;29507;51.284;5.758;2023-06-19T01:35:47;4.93;;;2.80;;
43857;SDS011;29507;51.284;5.758;2023-06-19T01:38:13;7.22;;;3.35;;
43857;SDS011;29507;51.284;5.758;2023-06-19T01:40:41;5.85;;;3.17;;
43857;SDS011;29507;51.284;5.758;2023-06-19T01:43:11;5.75;;;3.30;;
43857;SDS011;29507;51.284;5.758;2023-06-19T01:45:37;5.55;;;3.00;;
43857;SDS011;29507;51.284;5.758;2023-06-19T01:48:03;6.18;;;3.60;;
43857;SDS011;29507;51.284;5.758;2023-06-19T01:50:29;5.22;;;2.95;;
43857;SDS011;29507;51.284;5.758;2023-06-19T01:52:55;5.20;;;3.08;;
43857;SDS011;29507;51.284;5.758;2023-06-19T01:55:20;8.18;;;3.13;;
43857;SDS011;29507;51.284;5.758;2023-06-19T01:57:46;6.22;;;3.03;;
43857;SDS011;29507;51.284;5.758;2023-06-19T02:00:12;6.40;;;2.95;;
43857;SDS011;29507;51.284;5.758;2023-06-19T02:02:38;4.72;;;2.60;;
43857;SDS011;29507;51.284;5.758;2023-06-19T02:05:04;5.00;;;2.88;;
43857;SDS011;29507;51.284;5.758;2023-06-19T02:07:30;4.20;;;2.25;;
43857;SDS011;29507;51.284;5.758;2023-06-19T02:09:59;6.43;;;2.67;;
43857;SDS011;29507;51.284;5.758;2023-06-19T02:12:24;4.25;;;2.78;;
43857;SDS011;29507;51.284;5.758;2023-06-19T02:14:50;5.22;;;2.58;;
43857;SDS011;29507;51.284;5.758;2023-06-19T02:17:15;4.07;;;2.40;;
43857;SDS011;29507;51.284;5.758;2023-06-19T02:19:41;5.35;;;2.28;;
43857;SDS011;29507;51.284;5.758;2023-06-19T02:22:07;3.83;;;2.10;;
43857;SDS011;29507;51.284;5.758;2023-06-19T02:24:33;4.85;;;2.33;;
43857;SDS011;29507;51.284;5.758;2023-06-19T02:26:59;5.78;;;2.65;;
43857;SDS011;29507;51.284;5.758;2023-06-19T02:29:25;4.13;;;2.38;;
43857;SDS011;29507;51.284;5.758;2023-06-19T02:31:51;4.75;;;2.67;;
43857;SDS011;29507;51.284;5.758;2023-06-19T02:34:18;3.88;;;2.20;;
43857;SDS011;29507;51.284;5.758;2023-06-19T02:36:43;6.70;;;2.78;;
43857;SDS011;29507;51.284;5.758;2023-06-19T02:39:10;4.45;;;2.50;;
43857;SDS011;29507;51.284;5.758;2023-06-19T02:41:35;5.38;;;2.53;;
43857;SDS011;29507;51.284;5.758;2023-06-19T02:44:03;4.68;;;2.67;;
43857;SDS011;29507;51.284;5.758;2023-06-19T02:46:28;6.53;;;2.88;;
43857;SDS011;29507;51.284;5.758;2023-06-19T02:48:54;8.35;;;2.63;;
43857;SDS011;29507;51.284;5.758;2023-06-19T02:51:20;5.75;;;2.67;;
43857;SDS011;29507;51.284;5.758;2023-06-19T02:53:45;5.38;;;2.90;;
43857;SDS011;29507;51.284;5.758;2023-06-19T02:56:12;5.63;;;2.67;;
43857;SDS011;29507;51.284;5.758;2023-06-19T02:58:38;4.60;;;2.55;;
43857;SDS011;29507;51.284;5.758;2023-06-19T03:01:04;5.65;;;2.42;;
43857;SDS011;29507;51.284;5.758;2023-06-19T03:03:33;4.90;;;2.50;;
43857;SDS011;29507;51.284;5.758;2023-06-19T03:06:06;4.75;;;2.58;;
43857;SDS011;29507;51.284;5.758;2023-06-19T03:08:37;5.63;;;2.95;;
43857;SDS011;29507;51.284;5.758;2023-06-19T03:11:03;4.75;;;2.65;;
43857;SDS011;29507;51.284;5.758;2023-06-19T03:13:43;6.00;;;2.30;;
43857;SDS011;29507;51.284;5.758;2023-06-19T03:16:09;4.97;;;2.42;;
43857;SDS011;29507;51.284;5.758;2023-06-19T03:18:35;4.72;;;2.28;;
43857;SDS011;29507;51.284;5.758;2023-06-19T03:21:00;5.63;;;2.53;;
43857;SDS011;29507;51.284;5.758;2023-06-19T03:23:26;4.82;;;2.90;;
43857;SDS011;29507;51.284;5.758;2023-06-19T03:25:52;6.63;;;2.35;;
43857;SDS011;29507;51.284;5.758;2023-06-19T03:28:17;8.23;;;2.67;;
43857;SDS011;29507;51.284;5.758;2023-06-19T03:30:43;5.13;;;2.78;;
43857;SDS011;29507;51.284;5.758;2023-06-19T03:33:08;4.47;;;2.50;;
43857;SDS011;29507;51.284;5.758;2023-06-19T03:35:34;6.32;;;2.30;;
43857;SDS011;29507;51.284;5.758;2023-06-19T03:38:00;4.70;;;2.75;;
43857;SDS011;29507;51.284;5.758;2023-06-19T03:40:25;4.88;;;2.60;;
43857;SDS011;29507;51.284;5.758;2023-06-19T03:42:52;5.65;;;2.58;;
43857;SDS011;29507;51.284;5.758;2023-06-19T03:45:18;4.53;;;2.38;;
43857;SDS011;29507;51.284;5.758;2023-06-19T03:47:44;6.82;;;2.47;;
43857;SDS011;29507;51.284;5.758;2023-06-19T03:50:09;5.47;;;2.28;;
43857;SDS011;29507;51.284;5.758;2023-06-19T03:52:39;4.43;;;2.30;;
43857;SDS011;29507;51.284;5.758;2023-06-19T03:55:05;4.80;;;2.10;;
43857;SDS011;29507;51.284;5.758;2023-06-19T03:57:32;6.32;;;2.67;;
43857;SDS011;29507;51.284;5.758;2023-06-19T04:00:00;4.38;;;2.55;;
43857;SDS011;29507;51.284;5.758;2023-06-19T04:02:27;5.10;;;2.58;;
43857;SDS011;29507;51.284;5.758;2023-06-19T04:04:53;3.55;;;2.05;;
43857;SDS011;29507;51.284;5.758;2023-06-19T04:07:19;4.55;;;2.83;;
43857;SDS011;29507;51.284;5.758;2023-06-19T04:09:44;5.45;;;2.35;;
43857;SDS011;29507;51.284;5.758;2023-06-19T04:12:10;3.92;;;2.20;;
43857;SDS011;29507;51.284;5.758;2023-06-19T04:14:36;4.07;;;2.10;;
43857;SDS011;29507;51.284;5.758;2023-06-19T04:17:01;5.63;;;2.83;;
43857;SDS011;29507;51.284;5.758;2023-06-19T04:19:27;5.15;;;2.28;;
43857;SDS011;29507;51.284;5.758;2023-06-19T04:21:52;4.22;;;2.15;;
43857;SDS011;29507;51.284;5.758;2023-06-19T04:24:19;4.97;;;2.65;;
43857;SDS011;29507;51.284;5.758;2023-06-19T04:26:45;4.60;;;2.30;;
43857;SDS011;29507;51.284;5.758;2023-06-19T04:29:10;7.03;;;2.30;;
43857;SDS011;29507;51.284;5.758;2023-06-19T04:31:41;6.45;;;2.50;;
43857;SDS011;29507;51.284;5.758;2023-06-19T04:34:12;4.80;;;2.45;;
43857;SDS011;29507;51.284;5.758;2023-06-19T04:36:40;5.57;;;2.63;;
43857;SDS011;29507;51.284;5.758;2023-06-19T04:39:06;4.47;;;2.10;;
43857;SDS011;29507;51.284;5.758;2023-06-19T04:41:31;4.07;;;2.17;;
43857;SDS011;29507;51.284;5.758;2023-06-19T04:43:57;5.15;;;2.72;;
43857;SDS011;29507;51.284;5.758;2023-06-19T04:46:23;6.47;;;2.50;;
43857;SDS011;29507;51.284;5.758;2023-06-19T04:48:48;4.57;;;2.30;;
43857;SDS011;29507;51.284;5.758;2023-06-19T04:51:16;4.38;;;2.33;;
43857;SDS011;29507;51.284;5.758;2023-06-19T04:53:46;5.80;;;2.67;;
43857;SDS011;29507;51.284;5.758;2023-06-19T04:56:14;4.32;;;2.72;;
43857;SDS011;29507;51.284;5.758;2023-06-19T04:58:41;5.13;;;2.17;;
43857;SDS011;29507;51.284;5.758;2023-06-19T05:01:14;5.15;;;2.38;;
43857;SDS011;29507;51.284;5.758;2023-06-19T05:03:41;5.57;;;2.42;;
43857;SDS011;29507;51.284;5.758;2023-06-19T05:06:12;5.75;;;2.78;;
43857;SDS011;29507;51.284;5.758;2023-06-19T05:08:38;4.95;;;2.72;;
43857;SDS011;29507;51.284;5.758;2023-06-19T05:11:03;7.07;;;2.80;;
43857;SDS011;29507;51.284;5.758;2023-06-19T05:13:29;5.40;;;2.78;;
43857;SDS011;29507;51.284;5.758;2023-06-19T05:15:54;4.65;;;2.20;;
43857;SDS011;29507;51.284;5.758;2023-06-19T05:18:21;7.22;;;3.22;;
43857;SDS011;29507;51.284;5.758;2023-06-19T05:20:47;5.60;;;2.70;;
43857;SDS011;29507;51.284;5.758;2023-06-19T05:23:12;4.85;;;2.95;;
43857;SDS011;29507;51.284;5.758;2023-06-19T05:25:38;6.22;;;2.90;;
43857;SDS011;29507;51.284;5.758;2023-06-19T05:28:04;5.82;;;2.67;;
43857;SDS011;29507;51.284;5.758;2023-06-19T05:30:30;4.70;;;2.70;;
43857;SDS011;29507;51.284;5.758;2023-06-19T05:32:55;4.57;;;2.42;;
43857;SDS011;29507;51.284;5.758;2023-06-19T05:35:21;6.40;;;3.22;;
43857;SDS011;29507;51.284;5.758;2023-06-19T05:37:47;5.80;;;2.97;;
43857;SDS011;29507;51.284;5.758;2023-06-19T05:40:12;5.68;;;3.20;;
43857;SDS011;29507;51.284;5.758;2023-06-19T05:42:39;4.38;;;2.58;;
43857;SDS011;29507;51.284;5.758;2023-06-19T05:45:05;6.70;;;2.88;;
43857;SDS011;29507;51.284;5.758;2023-06-19T05:47:31;6.10;;;3.38;;
43857;SDS011;29507;51.284;5.758;2023-06-19T05:49:57;7.65;;;3.20;;
43857;SDS011;29507;51.284;5.758;2023-06-19T05:52:23;5.07;;;2.60;;
43857;SDS011;29507;51.284;5.758;2023-06-19T05:54:49;9.63;;;3.00;;
43857;SDS011;29507;51.284;5.758;2023-06-19T05:57:15;4.28;;;2.78;;
43857;SDS011;29507;51.284;5.758;2023-06-19T05:59:43;5.38;;;2.90;;
43857;SDS011;29507;51.284;5.758;2023-06-19T06:02:09;3.88;;;2.45;;
43857;SDS011;29507;51.284;5.758;2023-06-19T06:04:35;5.25;;;2.97;;
43857;SDS011;29507;51.284;5.758;2023-06-19T06:07:01;7.32;;;2.70;;
43857;SDS011;29507;51.284;5.758;2023-06-19T06:09:27;4.57;;;2.53;;
43857;SDS011;29507;51.284;5.758;2023-06-19T06:11:52;4.85;;;2.78;;
43857;SDS011;29507;51.284;5.758;2023-06-19T06:14:18;13.63;;;3.35;;
43857;SDS011;29507;51.284;5.758;2023-06-19T06:16:44;5.13;;;2.97;;
43857;SDS011;29507;51.284;5.758;2023-06-19T06:19:09;7.15;;;3.53;;
43857;SDS011;29507;51.284;5.758;2023-06-19T06:21:35;8.10;;;3.20;;
43857;SDS011;29507;51.284;5.758;2023-06-19T06:24:01;5.32;;;2.80;;
43857;SDS011;29507;51.284;5.758;2023-06-19T06:26:27;4.85;;;3.03;;
43857;SDS011;29507;51.284;5.758;2023-06-19T06:28:53;5.93;;;3.05;;
43857;SDS011;29507;51.284;5.758;2023-06-19T06:31:21;9.13;;;3.10;;
43857;SDS011;29507;51.284;5.758;2023-06-19T06:33:47;8.35;;;2.53;;
43857;SDS011;29507;51.284;5.758;2023-06-19T06:36:16;8.00;;;3.13;;
43857;SDS011;29507;51.284;5.758;2023-06-19T06:38:43;4.35;;;2.40;;
43857;SDS011;29507;51.284;5.758;2023-06-19T06:41:09;4.57;;;2.55;;
43857;SDS011;29507;51.284;5.758;2023-06-19T06:43:35;4.47;;;2.65;;
43857;SDS011;29507;51.284;5.758;2023-06-19T06:46:00;5.38;;;2.67;;
43857;SDS011;29507;51.284;5.758;2023-06-19T06:48:26;4.00;;;2.40;;
43857;SDS011;29507;51.284;5.758;2023-06-19T06:50:51;5.07;;;2.50;;
43857;SDS011;29507;51.284;5.758;2023-06-19T06:53:24;4.15;;;2.50;;
43857;SDS011;29507;51.284;5.758;2023-06-19T06:55:50;4.18;;;2.22;;
43857;SDS011;29507;51.284;5.758;2023-06-19T06:58:16;3.83;;;2.30;;
43857;SDS011;29507;51.284;5.758;2023-06-19T07:00:43;6.60;;;2.72;;
43857;SDS011;29507;51.284;5.758;2023-06-19T07:03:09;4.80;;;2.88;;
43857;SDS011;29507;51.284;5.758;2023-06-19T07:05:35;4.00;;;2.25;;
43857;SDS011;29507;51.284;5.758;2023-06-19T07:08:00;3.58;;;2.08;;
43857;SDS011;29507;51.284;5.758;2023-06-19T07:10:26;4.60;;;2.35;;
43857;SDS011;29507;51.284;5.758;2023-06-19T07:12:51;3.97;;;2.42;;
43857;SDS011;29507;51.284;5.758;2023-06-19T07:15:17;7.10;;;2.67;;
43857;SDS011;29507;51.284;5.758;2023-06-19T07:17:44;5.63;;;2.78;;
43857;SDS011;29507;51.284;5.758;2023-06-19T07:20:10;5.03;;;2.90;;
43857;SDS011;29507;51.284;5.758;2023-06-19T07:22:36;4.13;;;2.92;;
43857;SDS011;29507;51.284;5.758;2023-06-19T07:25:01;3.97;;;2.60;;
43857;SDS011;29507;51.284;5.758;2023-06-19T07:27:28;4.90;;;2.67;;
43857;SDS011;29507;51.284;5.758;2023-06-19T07:29:54;4.50;;;2.47;;
43857;SDS011;29507;51.284;5.758;2023-06-19T07:32:20;6.20;;;3.33;;
43857;SDS011;29507;51.284;5.758;2023-06-19T07:34:46;4.97;;;3.10;;
43857;SDS011;29507;51.284;5.758;2023-06-19T07:37:12;7.03;;;2.83;;
43857;SDS011;29507;51.284;5.758;2023-06-19T07:39:49;5.07;;;3.08;;
43857;SDS011;29507;51.284;5.758;2023-06-19T07:42:16;4.90;;;3.08;;
43857;SDS011;29507;51.284;5.758;2023-06-19T07:44:43;6.97;;;3.10;;
43857;SDS011;29507;51.284;5.758;2023-06-19T07:47:09;4.97;;;3.17;;
43857;SDS011;29507;51.284;5.758;2023-06-19T07:49:35;5.80;;;3.28;;
43857;SDS011;29507;51.284;5.758;2023-06-19T07:52:02;4.90;;;3.08;;
43857;SDS011;29507;51.284;5.758;2023-06-19T07:54:28;6.00;;;3.05;;
43857;SDS011;29507;51.284;5.758;2023-06-19T07:56:53;6.20;;;3.30;;
43857;SDS011;29507;51.284;5.758;2023-06-19T07:59:19;7.38;;;3.30;;
43857;SDS011;29507;51.284;5.758;2023-06-19T08:01:45;6.10;;;3.60;;
43857;SDS011;29507;51.284;5.758;2023-06-19T08:04:11;5.88;;;3.45;;
43857;SDS011;29507;51.284;5.758;2023-06-19T08:06:36;8.25;;;3.40;;
43857;SDS011;29507;51.284;5.758;2023-06-19T08:09:02;8.73;;;3.63;;
43857;SDS011;29507;51.284;5.758;2023-06-19T08:11:28;5.43;;;3.20;;
43857;SDS011;29507;51.284;5.758;2023-06-19T08:13:54;5.45;;;3.83;;
43857;SDS011;29507;51.284;5.758;2023-06-19T08:16:20;7.75;;;3.90;;
43857;SDS011;29507;51.284;5.758;2023-06-19T08:18:45;9.85;;;3.60;;
43857;SDS011;29507;51.284;5.758;2023-06-19T08:21:12;5.88;;;3.50;;
43857;SDS011;29507;51.284;5.758;2023-06-19T08:23:38;6.28;;;3.60;;
43857;SDS011;29507;51.284;5.758;2023-06-19T08:26:04;6.55;;;3.17;;
43857;SDS011;29507;51.284;5.758;2023-06-19T08:28:33;7.93;;;3.50;;
43857;SDS011;29507;51.284;5.758;2023-06-19T08:30:59;5.18;;;3.38;;
43857;SDS011;29507;51.284;5.758;2023-06-19T08:33:28;12.75;;;4.00;;
43857;SDS011;29507;51.284;5.758;2023-06-19T08:35:53;6.80;;;3.78;;
43857;SDS011;29507;51.284;5.758;2023-06-19T08:38:19;5.80;;;3.53;;
43857;SDS011;29507;51.284;5.758;2023-06-19T08:40:45;5.95;;;3.15;;
43857;SDS011;29507;51.284;5.758;2023-06-19T08:43:11;7.75;;;3.22;;
43857;SDS011;29507;51.284;5.758;2023-06-19T08:45:37;7.15;;;3.72;;
43857;SDS011;29507;51.284;5.758;2023-06-19T08:48:02;4.70;;;3.15;;
43857;SDS011;29507;51.284;5.758;2023-06-19T08:50:29;4.75;;;2.88;;
43857;SDS011;29507;51.284;5.758;2023-06-19T08:52:56;5.82;;;2.90;;
43857;SDS011;29507;51.284;5.758;2023-06-19T08:55:22;5.00;;;3.15;;
43857;SDS011;29507;51.284;5.758;2023-06-19T08:57:49;4.80;;;3.40;;
43857;SDS011;29507;51.284;5.758;2023-06-19T09:02:52;5.93;;;3.55;;
43857;SDS011;29507;51.284;5.758;2023-06-19T09:05:29;7.65;;;3.15;;
43857;SDS011;29507;51.284;5.758;2023-06-19T09:07:55;6.95;;;3.67;;
43857;SDS011;29507;51.284;5.758;2023-06-19T09:10:23;6.45;;;3.70;;
43857;SDS011;29507;51.284;5.758;2023-06-19T09:12:59;5.78;;;2.78;;
43857;SDS011;29507;51.284;5.758;2023-06-19T09:15:27;8.48;;;3.03;;
43857;SDS011;29507;51.284;5.758;2023-06-19T09:20:27;5.90;;;3.30;;
43857;SDS011;29507;51.284;5.758;2023-06-19T09:22:54;6.18;;;3.30;;
43857;SDS011;29507;51.284;5.758;2023-06-19T09:25:20;7.07;;;3.47;;
43857;SDS011;29507;51.284;5.758;2023-06-19T09:27:48;6.32;;;3.38;;
43857;SDS011;29507;51.284;5.758;2023-06-19T09:30:17;6.93;;;3.65;;
43857;SDS011;29507;51.284;5.758;2023-06-19T09:32:45;9.07;;;3.25;;
43857;SDS011;29507;51.284;5.758;2023-06-19T09:35:17;6.32;;;3.10;;
43857;SDS011;29507;51.284;5.758;2023-06-19T09:37:42;4.57;;;2.75;;
43857;SDS011;29507;51.284;5.758;2023-06-19T09:40:10;9.27;;;3.70;;
43857;SDS011;29507;51.284;5.758;2023-06-19T09:42:37;4.35;;;3.03;;
43857;SDS011;29507;51.284;5.758;2023-06-19T09:45:12;5.45;;;2.90;;
43857;SDS011;29507;51.284;5.758;2023-06-19T09:48:02;7.20;;;3.50;;
43857;SDS011;29507;51.284;5.758;2023-06-19T09:50:28;5.43;;;2.97;;
43857;SDS011;29507;51.284;5.758;2023-06-19T09:52:57;10.15;;;3.40;;
43857;SDS011;29507;51.284;5.758;2023-06-19T09:55:23;6.18;;;3.15;;
43857;SDS011;29507;51.284;5.758;2023-06-19T09:57:53;8.05;;;3.53;;
43857;SDS011;29507;51.284;5.758;2023-06-19T10:00:19;4.90;;;3.45;;
43857;SDS011;29507;51.284;5.758;2023-06-19T10:02:50;7.53;;;3.60;;
43857;SDS011;29507;51.284;5.758;2023-06-19T10:05:16;7.68;;;3.13;;
43857;SDS011;29507;51.284;5.758;2023-06-19T10:07:52;5.38;;;3.10;;
43857;SDS011;29507;51.284;5.758;2023-06-19T10:10:23;5.00;;;2.83;;
43857;SDS011;29507;51.284;5.758;2023-06-19T10:12:50;5.55;;;3.70;;
43857;SDS011;29507;51.284;5.758;2023-06-19T10:15:17;4.85;;;3.50;;
43857;SDS011;29507;51.284;5.758;2023-06-19T10:20:34;6.32;;;3.42;;
43857;SDS011;29507;51.284;5.758;2023-06-19T10:23:04;7.10;;;3.50;;
43857;SDS011;29507;51.284;5.758;2023-06-19T10:25:39;8.65;;;3.72;;
43857;SDS011;29507;51.284;5.758;2023-06-19T10:28:22;5.20;;;3.50;;
43857;SDS011;29507;51.284;5.758;2023-06-19T10:31:00;6.97;;;3.90;;
43857;SDS011;29507;51.284;5.758;2023-06-19T10:33:31;5.18;;;3.30;;
43857;SDS011;29507;51.284;5.758;2023-06-19T10:35:59;4.63;;;2.90;;
43857;SDS011;29507;51.284;5.758;2023-06-19T10:38:27;6.90;;;3.38;;
43857;SDS011;29507;51.284;5.758;2023-06-19T10:40:53;5.35;;;3.40;;
43857;SDS011;29507;51.284;5.758;2023-06-19T10:43:20;6.07;;;3.20;;
43857;SDS011;29507;51.284;5.758;2023-06-19T10:45:51;4.80;;;3.05;;
43857;SDS011;29507;51.284;5.758;2023-06-19T10:48:20;6.97;;;3.97;;
43857;SDS011;29507;51.284;5.758;2023-06-19T10:50:47;6.10;;;3.75;;
43857;SDS011;29507;51.284;5.758;2023-06-19T10:53:24;6.05;;;4.00;;
43857;SDS011;29507;51.284;5.758;2023-06-19T10:55:59;6.82;;;4.05;;
43857;SDS011;29507;51.284;5.758;2023-06-19T10:58:26;5.93;;;3.70;;
43857;SDS011;29507;51.284;5.758;2023-06-19T11:00:53;8.48;;;3.55;;
43857;SDS011;29507;51.284;5.758;2023-06-19T11:03:19;8.98;;;4.07;;
43857;SDS011;29507;51.284;5.758;2023-06-19T11:05:46;5.85;;;3.53;;
43857;SDS011;29507;51.284;5.758;2023-06-19T11:08:19;7.28;;;3.83;;
43857;SDS011;29507;51.284;5.758;2023-06-19T11:10:46;7.75;;;3.78;;
43857;SDS011;29507;51.284;5.758;2023-06-19T11:13:16;7.72;;;3.78;;
43857;SDS011;29507;51.284;5.758;2023-06-19T11:15:43;6.50;;;3.88;;
43857;SDS011;29507;51.284;5.758;2023-06-19T11:18:09;6.85;;;3.65;;
43857;SDS011;29507;51.284;5.758;2023-06-19T11:20:48;5.63;;;3.53;;
43857;SDS011;29507;51.284;5.758;2023-06-19T11:23:16;7.22;;;4.00;;
43857;SDS011;29507;51.284;5.758;2023-06-19T11:25:51;7.88;;;4.35;;
43857;SDS011;29507;51.284;5.758;2023-06-19T11:28:51;6.43;;;3.63;;
43857;SDS011;29507;51.284;5.758;2023-06-19T11:31:18;6.57;;;3.83;;
43857;SDS011;29507;51.284;5.758;2023-06-19T11:33:57;8.15;;;4.15;;
43857;SDS011;29507;51.284;5.758;2023-06-19T11:36:27;6.60;;;3.97;;
43857;SDS011;29507;51.284;5.758;2023-06-19T11:38:54;7.85;;;3.63;;
43857;SDS011;29507;51.284;5.758;2023-06-19T11:41:29;8.60;;;4.10;;
43857;SDS011;29507;51.284;5.758;2023-06-19T11:43:59;6.35;;;3.78;;
43857;SDS011;29507;51.284;5.758;2023-06-19T11:46:30;7.78;;;3.92;;
43857;SDS011;29507;51.284;5.758;2023-06-19T11:51:39;5.97;;;3.83;;
43857;SDS011;29507;51.284;5.758;2023-06-19T11:54:06;6.63;;;3.70;;
43857;SDS011;29507;51.284;5.758;2023-06-19T11:56:34;9.32;;;4.03;;
43857;SDS011;29507;51.284;5.758;2023-06-19T11:59:04;6.53;;;3.83;;
43857;SDS011;29507;51.284;5.758;2023-06-19T12:01:33;5.70;;;3.60;;
43857;SDS011;29507;51.284;5.758;2023-06-19T12:04:00;5.72;;;3.65;;
43857;SDS011;29507;51.284;5.758;2023-06-19T12:06:26;7.35;;;3.85;;
43857;SDS011;29507;51.284;5.758;2023-06-19T12:08:52;4.55;;;3.15;;
43857;SDS011;29507;51.284;5.758;2023-06-19T12:11:17;6.38;;;3.67;;
43857;SDS011;29507;51.284;5.758;2023-06-19T12:13:43;6.05;;;4.00;;
43857;SDS011;29507;51.284;5.758;2023-06-19T12:16:13;6.32;;;4.00;;
43857;SDS011;29507;51.284;5.758;2023-06-19T12:18:39;8.18;;;4.07;;
43857;SDS011;29507;51.284;5.758;2023-06-19T12:21:05;6.78;;;3.90;;
43857;SDS011;29507;51.284;5.758;2023-06-19T12:23:31;5.50;;;3.78;;
43857;SDS011;29507;51.284;5.758;2023-06-19T12:25:57;9.25;;;4.18;;
43857;SDS011;29507;51.284;5.758;2023-06-19T12:28:23;7.55;;;4.68;;
43857;SDS011;29507;51.284;5.758;2023-06-19T12:30:50;6.25;;;3.88;;
43857;SDS011;29507;51.284;5.758;2023-06-19T12:33:18;6.63;;;4.18;;
43857;SDS011;29507;51.284;5.758;2023-06-19T12:35:44;5.68;;;4.05;;
43857;SDS011;29507;51.284;5.758;2023-06-19T12:38:10;8.07;;;3.95;;
43857;SDS011;29507;51.284;5.758;2023-06-19T12:40:36;6.38;;;3.55;;
43857;SDS011;29507;51.284;5.758;2023-06-19T12:43:02;9.27;;;4.03;;
43857;SDS011;29507;51.284;5.758;2023-06-19T12:45:28;7.85;;;4.28;;
43857;SDS011;29507;51.284;5.758;2023-06-19T12:47:54;5.40;;;3.90;;
43857;SDS011;29507;51.284;5.758;2023-06-19T12:50:19;6.97;;;4.10;;
43857;SDS011;29507;51.284;5.758;2023-06-19T12:52:45;7.00;;;4.10;;
43857;SDS011;29507;51.284;5.758;2023-06-19T12:55:11;7.35;;;4.03;;
43857;SDS011;29507;51.284;5.758;2023-06-19T12:57:39;6.63;;;3.70;;
43857;SDS011;29507;51.284;5.758;2023-06-19T13:00:11;6.68;;;4.00;;
43857;SDS011;29507;51.284;5.758;2023-06-19T13:02:37;7.00;;;4.20;;
43857;SDS011;29507;51.284;5.758;2023-06-19T13:05:04;4.80;;;3.38;;
43857;SDS011;29507;51.284;5.758;2023-06-19T13:07:30;6.22;;;4.05;;
43857;SDS011;29507;51.284;5.758;2023-06-19T13:09:56;5.10;;;3.10;;
43857;SDS011;29507;51.284;5.758;2023-06-19T13:12:23;6.82;;;3.63;;
43857;SDS011;29507;51.284;5.758;2023-06-19T13:14:48;5.10;;;3.22;;
43857;SDS011;29507;51.284;5.758;2023-06-19T13:17:14;5.32;;;3.45;;
43857;SDS011;29507;51.284;5.758;2023-06-19T13:19:40;5.55;;;3.50;;
43857;SDS011;29507;51.284;5.758;2023-06-19T13:22:09;5.53;;;3.70;;
43857;SDS011;29507;51.284;5.758;2023-06-19T13:24:34;7.97;;;4.40;;
43857;SDS011;29507;51.284;5.758;2023-06-19T13:27:00;6.40;;;4.25;;
43857;SDS011;29507;51.284;5.758;2023-06-19T13:29:25;9.25;;;3.63;;
43857;SDS011;29507;51.284;5.758;2023-06-19T13:31:54;8.10;;;3.70;;
43857;SDS011;29507;51.284;5.758;2023-06-19T13:34:19;7.63;;;3.88;;
43857;SDS011;29507;51.284;5.758;2023-06-19T13:36:46;6.50;;;2.95;;
43857;SDS011;29507;51.284;5.758;2023-06-19T13:39:12;5.40;;;3.50;;
43857;SDS011;29507;51.284;5.758;2023-06-19T13:41:38;5.35;;;3.05;;
43857;SDS011;29507;51.284;5.758;2023-06-19T13:44:04;5.95;;;3.05;;
43857;SDS011;29507;51.284;5.758;2023-06-19T13:46:29;5.68;;;3.58;;
43857;SDS011;29507;51.284;5.758;2023-06-19T13:48:56;5.75;;;3.50;;
43857;SDS011;29507;51.284;5.758;2023-06-19T13:51:23;6.20;;;3.47;;
43857;SDS011;29507;51.284;5.758;2023-06-19T13:54:07;5.78;;;3.60;;
43857;SDS011;29507;51.284;5.758;2023-06-19T13:56:32;5.78;;;3.35;;
43857;SDS011;29507;51.284;5.758;2023-06-19T13:58:58;9.30;;;3.40;;
43857;SDS011;29507;51.284;5.758;2023-06-19T14:01:24;7.88;;;3.35;;
43857;SDS011;29507;51.284;5.758;2023-06-19T14:03:52;6.40;;;3.85;;
43857;SDS011;29507;51.284;5.758;2023-06-19T14:06:18;5.78;;;3.67;;
43857;SDS011;29507;51.284;5.758;2023-06-19T14:08:43;5.82;;;3.35;;
43857;SDS011;29507;51.284;5.758;2023-06-19T14:11:10;7.45;;;3.80;;
43857;SDS011;29507;51.284;5.758;2023-06-19T14:13:36;5.53;;;3.10;;
43857;SDS011;29507;51.284;5.758;2023-06-19T14:16:02;5.60;;;3.38;;
43857;SDS011;29507;51.284;5.758;2023-06-19T14:18:28;5.40;;;3.20;;
43857;SDS011;29507;51.284;5.758;2023-06-19T14:20:53;6.63;;;3.30;;
43857;SDS011;29507;51.284;5.758;2023-06-19T14:23:19;6.25;;;3.50;;
43857;SDS011;29507;51.284;5.758;2023-06-19T14:25:46;5.95;;;3.22;;
43857;SDS011;29507;51.284;5.758;2023-06-19T14:28:12;7.45;;;3.63;;
43857;SDS011;29507;51.284;5.758;2023-06-19T14:30:39;4.90;;;3.03;;
43857;SDS011;29507;51.284;5.758;2023-06-19T14:33:04;5.75;;;3.63;;
43857;SDS011;29507;51.284;5.758;2023-06-19T14:35:33;5.63;;;3.67;;
43857;SDS011;29507;51.284;5.758;2023-06-19T14:40:24;5.53;;;3.42;;
43857;SDS011;29507;51.284;5.758;2023-06-19T14:42:50;7.43;;;3.55;;
43857;SDS011;29507;51.284;5.758;2023-06-19T14:45:15;6.15;;;3.65;;
43857;SDS011;29507;51.284;5.758;2023-06-19T14:47:41;5.78;;;3.78;;
43857;SDS011;29507;51.284;5.758;2023-06-19T14:50:07;4.50;;;2.47;;
43857;SDS011;29507;51.284;5.758;2023-06-19T14:52:33;6.63;;;3.15;;
43857;SDS011;29507;51.284;5.758;2023-06-19T14:55:10;5.68;;;3.55;;
43857;SDS011;29507;51.284;5.758;2023-06-19T14:57:35;5.57;;;3.13;;
43857;SDS011;29507;51.284;5.758;2023-06-19T15:00:01;7.03;;;3.20;;
43857;SDS011;29507;51.284;5.758;2023-06-19T15:02:27;7.30;;;3.78;;